Airfield :
LOGIN :

Register | Disclaimer

   EN    FR    IT 

 










Legend :    VFR   Marginal VFR   IFR   Intensive IFR   Very Intensive IFR
Visi :
Ceiling :
>= 8 km
>= 3000ft
5 to 8 km
1000 to 3000 ft
1500m to 5 km
500 to 1000 ft
800 to 1500m
200 to 500 ft
< 800m
< 200 ft
Symbols :   Thunderstorms  Fog  Heavy snow  Heavy precipitations  Wind > 20 kt
SIGMETs :     Misc.  Thunderstorms  Icing  Turbulence  Mountain Waves  Volcanic Ashes







- Airport Elevation : 326 ft
- IATA code : LCG
- Download approach charts


LECO - A Coruna

CURRENT METAR :
  • 220000Z AUTO 19003KT 150V210 9000 BKN013/// 14/12 Q1014

EXPIRED METARs :
  • 212330Z AUTO 00000KT 9999 OVC014/// 14/12 Q1014
  • 212300Z 00000KT 9999 OVC013 14/12 Q1014 TEMPO 3000 BR BKN008
  • 212230Z VRB02KT 9999 OVC014 14/12 Q1014 TEMPO 3000 BR BKN008
  • 212200Z 30003KT 260V340 9999 OVC013 14/12 Q1014 TEMPO 3000 BR BKN008
  • 212130Z 32003KT 280V010 9999 OVC014 14/12 Q1014 NOSIG

TAF AMD TAF LECO
Valid from the 21 at 21:00 until the 22 at 21:00 UTC


212149Z 2121/2221 VRB04KT 9999 SCT010 BKN018 TX22/2214Z TN11/2205Z
TEMPO 2121/2208 BKN014
BECMG 2121/2123 3000 BR BKN008
TEMPO 2200/2208 1400 BCFG BKN002
PROB40
TEMPO 2200/2208 0500 FG BKN001
BECMG 2208/2209 CAVOK
PROB40
TEMPO 2213/2218 33010KT
No reported NOTAMs for that airfield.



MET'MAP, your aeronautical weather chart ! - Copyright ORBIFLY December 2007 - Disclaimer

ORBIFLY MET'MAP TEAM :

Programming & Development : Alexandra Zaïnal
Concept & Development : Baudouin d'Aumeries
Co-Development & Prog : Marc-Olivier Méhu
Technical & hardware support : Manuel Goepfert

Contact : metmap@orbifly.com




SOURCES & CREDITS :

   NOAA